createdAt,value
2016-10-14T00:00:43.243Z,0
2016-10-14T00:02:43.271Z,0
2016-10-14T00:03:43.286Z,0
2016-10-14T00:04:58.226Z,0
2016-10-14T00:05:43.326Z,0
2016-10-14T00:06:43.344Z,0
2016-10-14T00:07:43.367Z,0
2016-10-14T00:09:43.396Z,0
2016-10-14T00:10:43.675Z,0
2016-10-14T00:11:43.431Z,0
2016-10-14T00:12:43.466Z,0
2016-10-14T00:13:43.478Z,0
2016-10-14T00:14:43.509Z,0
2016-10-14T00:15:43.525Z,0
2016-10-14T00:16:43.540Z,0
2016-10-14T00:18:58.501Z,0
2016-10-14T00:19:43.602Z,0
2016-10-14T00:20:58.539Z,0
2016-10-14T00:21:43.640Z,0
2016-10-14T00:22:43.660Z,0
2016-10-14T00:23:58.599Z,0
2016-10-14T00:24:43.703Z,0
2016-10-14T00:25:43.716Z,0
2016-10-14T00:26:43.735Z,0
2016-10-14T00:27:43.754Z,0
2016-10-14T00:28:43.836Z,0
2016-10-14T00:29:44.044Z,0
2016-10-14T00:30:43.802Z,0
2016-10-14T00:31:58.753Z,0
2016-10-14T00:32:43.855Z,0
2016-10-14T00:33:58.799Z,0
2016-10-14T00:34:43.895Z,0
2016-10-14T00:35:58.826Z,0
2016-10-14T00:36:58.854Z,0
2016-10-14T00:37:43.950Z,0
2016-10-14T00:38:44.220Z,0
2016-10-14T00:39:43.988Z,0
2016-10-14T00:40:44.008Z,0
2016-10-14T00:41:59.209Z,0
2016-10-14T00:42:44.294Z,0
2016-10-14T00:43:58.987Z,0
2016-10-14T00:45:44.110Z,0
2016-10-14T00:46:59.047Z,0
2016-10-14T00:47:44.147Z,0
2016-10-14T00:48:44.164Z,0
2016-10-14T00:49:44.177Z,0
2016-10-14T00:50:59.428Z,0
2016-10-14T00:51:44.222Z,0
2016-10-14T00:52:59.166Z,0
2016-10-14T00:53:44.509Z,0
2016-10-14T00:54:59.365Z,0
2016-10-14T00:55:44.299Z,0
2016-10-14T00:56:44.322Z,0
2016-10-14T00:57:44.342Z,0
2016-10-14T00:58:44.357Z,0
2016-10-14T00:59:44.367Z,0
2016-10-14T01:00:44.412Z,0
2016-10-14T01:01:44.422Z,0
2016-10-14T01:02:44.453Z,0
2016-10-14T01:03:44.706Z,0
2016-10-14T01:04:44.521Z,0
2016-10-14T01:05:44.488Z,0
2016-10-14T01:06:44.510Z,0
2016-10-14T01:07:59.455Z,0
2016-10-14T01:08:44.550Z,0
2016-10-14T01:09:44.569Z,0
2016-10-14T01:10:44.592Z,0
2016-10-14T01:11:44.604Z,0
2016-10-14T01:12:59.547Z,0
2016-10-14T01:13:44.642Z,0
2016-10-14T01:14:44.670Z,0
2016-10-14T01:15:44.698Z,0
2016-10-14T01:16:45.015Z,0
2016-10-14T01:17:44.724Z,0
2016-10-14T01:18:44.996Z,0
2016-10-14T01:19:59.687Z,0
2016-10-14T01:21:14.625Z,0
2016-10-14T01:21:44.805Z,0
2016-10-14T01:22:59.785Z,0
2016-10-14T01:23:44.834Z,0
2016-10-14T01:24:44.861Z,0
2016-10-14T01:25:44.882Z,0
2016-10-14T01:26:44.900Z,0
2016-10-14T01:27:44.917Z,0
2016-10-14T01:28:44.935Z,0
2016-10-14T01:29:45.002Z,0
2016-10-14T01:30:45.018Z,0
2016-10-14T01:31:45.046Z,0
2016-10-14T01:32:45.011Z,0
2016-10-14T01:33:45.033Z,0
2016-10-14T01:34:59.977Z,0
2016-10-14T01:35:45.071Z,0
2016-10-14T01:36:45.087Z,0
2016-10-14T01:37:45.113Z,0
2016-10-14T01:39:00.051Z,0
2016-10-14T01:40:00.065Z,0
2016-10-14T01:40:45.169Z,0
2016-10-14T01:41:45.187Z,0
2016-10-14T01:42:45.203Z,0
2016-10-14T01:43:45.220Z,0
2016-10-14T01:45:00.158Z,0
2016-10-14T01:45:45.281Z,0
2016-10-14T01:46:45.297Z,0
2016-10-14T01:47:45.296Z,0
2016-10-14T01:49:45.325Z,0
2016-10-14T01:51:00.525Z,0
2016-10-14T01:51:45.373Z,0
2016-10-14T01:52:45.391Z,0
2016-10-14T01:54:00.332Z,0
2016-10-14T01:54:45.427Z,0
2016-10-14T01:56:00.370Z,0
2016-10-14T01:56:45.468Z,0
2016-10-14T01:57:45.491Z,0
2016-10-14T01:58:45.504Z,0
2016-10-14T01:59:45.525Z,0
2016-10-14T02:00:45.549Z,0
2016-10-14T02:01:45.553Z,0
2016-10-14T02:02:45.583Z,0
2016-10-14T02:03:45.608Z,0
2016-10-14T02:05:45.638Z,0
2016-10-14T02:07:00.569Z,0
2016-10-14T02:08:00.652Z,0
2016-10-14T02:08:45.737Z,0
2016-10-14T02:09:45.718Z,0
2016-10-14T02:11:00.652Z,0
2016-10-14T02:12:00.660Z,0
2016-10-14T02:12:45.768Z,0
2016-10-14T02:13:45.790Z,0
2016-10-14T02:14:46.079Z,0
2016-10-14T02:15:45.825Z,0
2016-10-14T02:17:46.114Z,0
2016-10-14T02:18:45.883Z,0
2016-10-14T02:20:00.815Z,0
2016-10-14T02:20:45.915Z,0
2016-10-14T02:21:45.939Z,0
2016-10-14T02:22:45.954Z,0
2016-10-14T02:23:45.976Z,0
2016-10-14T02:25:15.836Z,0
2016-10-14T02:25:46.014Z,0
2016-10-14T02:26:46.029Z,0
2016-10-14T02:28:01.212Z,0
2016-10-14T02:28:46.070Z,0
2016-10-14T02:29:46.080Z,0
2016-10-14T02:30:46.103Z,0
2016-10-14T02:31:46.127Z,0
2016-10-14T02:32:46.136Z,0
2016-10-14T02:33:46.158Z,0
2016-10-14T02:34:46.178Z,0
2016-10-14T02:35:46.192Z,0
2016-10-14T02:36:46.218Z,0
2016-10-14T02:38:01.149Z,0
2016-10-14T02:38:46.258Z,0
2016-10-14T02:39:46.274Z,0
2016-10-14T02:41:01.467Z,0
2016-10-14T02:42:01.227Z,0
2016-10-14T02:43:01.251Z,0
2016-10-14T02:43:46.348Z,0
2016-10-14T02:44:46.360Z,0
2016-10-14T02:45:46.384Z,0
2016-10-14T02:46:46.406Z,0
2016-10-14T02:47:46.414Z,0
2016-10-14T02:48:46.438Z,0
2016-10-14T02:49:46.455Z,0
2016-10-14T02:52:01.427Z,0
2016-10-14T02:52:46.520Z,0
2016-10-14T02:55:01.475Z,0
2016-10-14T02:55:46.569Z,0
2016-10-14T02:56:46.592Z,0
2016-10-14T02:58:01.528Z,0
2016-10-14T02:58:46.624Z,0
2016-10-14T02:59:46.644Z,0
2016-10-14T03:00:46.664Z,0
2016-10-14T03:01:46.675Z,0
2016-10-14T03:02:46.705Z,0
2016-10-14T03:03:46.717Z,0
2016-10-14T03:04:47.041Z,0
2016-10-14T03:05:46.759Z,0
2016-10-14T03:07:46.796Z,0
2016-10-14T03:08:46.815Z,0
2016-10-14T03:10:01.752Z,0
2016-10-14T03:10:46.851Z,0
2016-10-14T03:11:46.929Z,0
2016-10-14T03:12:46.886Z,0
2016-10-14T03:14:01.818Z,0
2016-10-14T03:15:01.847Z,0
2016-10-14T03:15:46.947Z,0
2016-10-14T03:16:46.959Z,0
2016-10-14T03:17:46.975Z,0
2016-10-14T03:18:46.996Z,0
2016-10-14T03:19:47.020Z,0
2016-10-14T03:20:47.025Z,0
2016-10-14T03:22:47.066Z,0
2016-10-14T03:23:47.093Z,0
2016-10-14T03:25:02.027Z,0
2016-10-14T03:26:02.042Z,0
2016-10-14T03:26:47.151Z,0
2016-10-14T03:28:02.085Z,0
2016-10-14T03:28:47.179Z,0
2016-10-14T03:29:47.201Z,0
2016-10-14T03:31:02.384Z,0
2016-10-14T03:31:47.254Z,0
2016-10-14T03:32:47.255Z,0
2016-10-14T03:33:47.266Z,0
2016-10-14T03:34:47.289Z,0
2016-10-14T03:35:47.554Z,0
2016-10-14T03:36:47.324Z,0
2016-10-14T03:37:47.343Z,0
2016-10-14T03:38:47.365Z,0
2016-10-14T03:39:47.373Z,0
2016-10-14T03:40:47.393Z,0
2016-10-14T03:41:47.415Z,0
2016-10-14T03:42:47.436Z,0
2016-10-14T03:43:47.703Z,0
2016-10-14T03:44:47.719Z,0
2016-10-14T03:45:47.508Z,0
2016-10-14T03:47:17.345Z,0
2016-10-14T03:47:47.529Z,0
2016-10-14T03:48:47.540Z,0
2016-10-14T03:49:47.585Z,0
2016-10-14T03:50:47.780Z,0
2016-10-14T03:51:47.600Z,0
2016-10-14T03:54:47.645Z,0
2016-10-14T03:56:02.594Z,0
2016-10-14T03:56:47.689Z,0
2016-10-14T03:57:47.706Z,0
2016-10-14T03:58:47.720Z,0
2016-10-14T04:00:02.670Z,0
2016-10-14T04:00:47.756Z,0
2016-10-14T04:01:48.038Z,0
2016-10-14T04:03:02.713Z,0
2016-10-14T04:03:47.818Z,0
2016-10-14T04:05:02.755Z,0
2016-10-14T04:05:47.854Z,0
2016-10-14T04:07:02.790Z,0
2016-10-14T04:07:48.212Z,0
2016-10-14T04:08:47.907Z,0
2016-10-14T04:10:47.940Z,0
2016-10-14T04:11:47.959Z,0
2016-10-14T04:13:03.159Z,0
2016-10-14T04:14:02.921Z,0
2016-10-14T04:15:17.857Z,0
2016-10-14T04:15:48.032Z,0
2016-10-14T04:16:48.057Z,0
2016-10-14T04:18:02.986Z,0
2016-10-14T04:18:48.086Z,0
2016-10-14T04:20:03.025Z,0
2016-10-14T04:20:48.125Z,0
2016-10-14T04:21:48.151Z,0
2016-10-14T04:22:48.153Z,0
2016-10-14T04:23:48.172Z,0
2016-10-14T04:24:48.199Z,0
2016-10-14T04:25:48.217Z,0
2016-10-14T04:26:48.238Z,0
2016-10-14T04:27:48.254Z,0
2016-10-14T04:28:48.274Z,0
2016-10-14T04:29:48.283Z,0
2016-10-14T04:30:48.310Z,0
2016-10-14T04:31:48.327Z,0
2016-10-14T04:32:48.344Z,0
2016-10-14T04:33:48.354Z,0
2016-10-14T04:35:03.289Z,0
2016-10-14T04:35:48.389Z,0
2016-10-14T04:36:48.411Z,0
2016-10-14T04:37:48.443Z,0
2016-10-14T04:38:48.449Z,0
2016-10-14T04:39:48.482Z,0
2016-10-14T04:40:48.492Z,0
2016-10-14T04:41:48.495Z,0
2016-10-14T04:44:03.707Z,0
2016-10-14T04:44:48.547Z,0
2016-10-14T04:46:03.500Z,0
2016-10-14T04:47:18.432Z,0
2016-10-14T04:47:48.626Z,0
2016-10-14T04:48:48.626Z,0
2016-10-14T04:50:03.566Z,0
2016-10-14T04:50:48.663Z,0
2016-10-14T04:52:48.699Z,0
2016-10-14T04:53:48.715Z,0
2016-10-14T04:54:48.732Z,0
2016-10-14T04:55:48.754Z,0
2016-10-14T04:56:48.765Z,0
2016-10-14T04:57:48.796Z,0
2016-10-14T04:58:48.796Z,0
2016-10-14T04:59:48.827Z,0
2016-10-14T05:01:48.857Z,0
2016-10-14T05:02:48.891Z,0
2016-10-14T05:03:48.884Z,0
2016-10-14T05:04:48.917Z,0
2016-10-14T05:06:03.855Z,0
2016-10-14T05:06:48.949Z,0
2016-10-14T05:07:48.970Z,0
2016-10-14T05:08:48.983Z,0
2016-10-14T05:09:48.994Z,0
2016-10-14T05:10:49.022Z,0
2016-10-14T05:11:49.043Z,0
2016-10-14T05:12:49.056Z,0
2016-10-14T05:13:49.324Z,0
2016-10-14T05:14:49.099Z,0
2016-10-14T05:15:49.363Z,0
2016-10-14T05:16:49.124Z,0
2016-10-14T05:17:49.142Z,0
2016-10-14T05:19:04.084Z,0
2016-10-14T05:19:49.175Z,0
2016-10-14T05:21:04.114Z,0
2016-10-14T05:22:49.239Z,0
2016-10-14T05:23:49.267Z,0
2016-10-14T05:24:49.275Z,5
2016-10-14T05:25:49.293Z,5
2016-10-14T05:26:49.303Z,5
2016-10-14T05:28:04.266Z,5
2016-10-14T05:28:49.342Z,5
2016-10-14T05:29:49.356Z,5
2016-10-14T05:31:49.958Z,5
2016-10-14T05:33:04.332Z,5
2016-10-14T05:35:04.680Z,10
2016-10-14T05:35:49.471Z,10
2016-10-14T05:36:49.682Z,10
2016-10-14T05:38:19.347Z,15
2016-10-14T05:40:04.462Z,15
2016-10-14T05:40:49.566Z,15
2016-10-14T05:41:49.571Z,20
2016-10-14T05:42:49.600Z,20
2016-10-14T05:43:49.624Z,25
2016-10-14T05:44:49.630Z,25
2016-10-14T05:45:49.650Z,25
2016-10-14T05:46:49.671Z,25
2016-10-14T05:47:49.690Z,25
2016-10-14T05:49:19.548Z,25
2016-10-14T05:49:49.725Z,25
2016-10-14T05:50:49.731Z,25
2016-10-14T05:52:04.675Z,25
2016-10-14T05:53:04.715Z,30
2016-10-14T05:53:49.798Z,30
2016-10-14T05:55:04.734Z,30
2016-10-14T05:55:49.833Z,30
2016-10-14T05:57:49.864Z,30
2016-10-14T05:58:49.879Z,30
2016-10-14T05:59:49.904Z,40
2016-10-14T06:01:04.846Z,50
2016-10-14T06:02:04.856Z,55
2016-10-14T06:02:50.269Z,50
2016-10-14T06:03:49.973Z,50
2016-10-14T06:05:50.014Z,60
2016-10-14T06:07:19.872Z,90
2016-10-14T06:07:50.356Z,65
2016-10-14T06:08:50.087Z,65
2016-10-14T06:09:50.090Z,70
2016-10-14T06:10:50.103Z,70
2016-10-14T06:12:05.294Z,65
2016-10-14T06:12:50.140Z,80
2016-10-14T06:13:50.160Z,85
2016-10-14T06:14:50.177Z,80
2016-10-14T06:15:50.188Z,85
2016-10-14T06:17:50.234Z,85
2016-10-14T06:18:50.274Z,85
2016-10-14T06:19:50.272Z,85
2016-10-14T06:21:05.222Z,100
2016-10-14T06:21:50.316Z,110
2016-10-14T06:22:50.328Z,90
2016-10-14T06:23:50.346Z,85
2016-10-14T06:25:05.287Z,80
2016-10-14T06:25:50.377Z,75
2016-10-14T06:26:50.650Z,70
2016-10-14T06:28:50.435Z,70
2016-10-14T06:29:50.459Z,85
2016-10-14T06:30:50.473Z,75
2016-10-14T06:31:50.496Z,75
2016-10-14T06:33:50.530Z,90
2016-10-14T06:37:05.511Z,85
2016-10-14T06:37:50.605Z,125
2016-10-14T06:38:50.633Z,105
2016-10-14T06:39:50.651Z,110
2016-10-14T06:41:05.587Z,105
2016-10-14T06:41:50.700Z,105
2016-10-14T06:43:05.624Z,105
2016-10-14T06:43:50.725Z,100
2016-10-14T06:45:50.768Z,125
2016-10-14T06:46:50.783Z,110
2016-10-14T06:47:50.799Z,110
2016-10-14T06:48:50.844Z,110
2016-10-14T06:49:50.838Z,110
2016-10-14T06:50:50.852Z,110
2016-10-14T06:51:50.871Z,110
2016-10-14T06:52:50.891Z,115
2016-10-14T06:53:50.906Z,120
2016-10-14T06:54:51.480Z,125
2016-10-14T06:56:05.873Z,145
2016-10-14T06:57:05.886Z,140
2016-10-14T06:57:50.990Z,145
2016-10-14T06:58:51.000Z,160
2016-10-14T06:59:51.019Z,155
2016-10-14T07:00:51.043Z,160
2016-10-14T07:01:51.060Z,185
2016-10-14T07:02:51.080Z,200
2016-10-14T07:03:51.099Z,195
2016-10-14T07:04:51.125Z,220
2016-10-14T07:05:51.148Z,215
2016-10-14T07:06:51.412Z,210
2016-10-14T07:07:51.175Z,195
2016-10-14T07:09:21.048Z,190
2016-10-14T07:09:51.216Z,190
2016-10-14T07:10:51.240Z,185
2016-10-14T07:12:06.227Z,175
2016-10-14T07:13:06.200Z,175
2016-10-14T07:13:51.300Z,170
2016-10-14T07:14:51.329Z,170
2016-10-14T07:16:06.264Z,170
2016-10-14T07:17:06.283Z,165
2016-10-14T07:17:51.378Z,160
2016-10-14T07:18:51.401Z,160
2016-10-14T07:19:51.430Z,155
2016-10-14T07:20:51.446Z,155
2016-10-14T07:21:51.465Z,155
2016-10-14T07:22:52.092Z,155
2016-10-14T07:24:06.436Z,155
2016-10-14T07:25:06.466Z,155
2016-10-14T07:25:51.551Z,155
2016-10-14T07:26:51.575Z,155
2016-10-14T07:28:06.506Z,160
2016-10-14T07:28:51.615Z,155
2016-10-14T07:29:51.625Z,155
2016-10-14T07:30:51.649Z,155
2016-10-14T07:31:51.674Z,150
2016-10-14T07:32:51.693Z,150
2016-10-14T07:33:51.714Z,145
2016-10-14T07:34:51.985Z,145
2016-10-14T07:36:06.679Z,140
2016-10-14T07:36:51.763Z,135
2016-10-14T07:37:51.797Z,125
2016-10-14T07:38:51.813Z,125
2016-10-14T07:40:21.682Z,130
2016-10-14T07:40:51.861Z,125
2016-10-14T07:41:51.876Z,125
2016-10-14T07:42:51.908Z,120
2016-10-14T07:43:51.913Z,125
2016-10-14T07:45:06.863Z,130
2016-10-14T07:45:52.262Z,130
2016-10-14T07:46:51.983Z,140
2016-10-14T07:47:52.011Z,150
2016-10-14T07:48:52.018Z,155
2016-10-14T07:49:52.045Z,155
2016-10-14T07:50:52.053Z,155
2016-10-14T07:52:07.005Z,155
2016-10-14T07:52:52.098Z,160
2016-10-14T07:53:52.360Z,155
2016-10-14T07:56:52.195Z,155
2016-10-14T07:58:07.120Z,160
2016-10-14T07:59:07.139Z,160
2016-10-14T08:00:07.370Z,160
2016-10-14T08:00:52.258Z,160
2016-10-14T08:02:07.207Z,160
2016-10-14T08:02:52.310Z,160
2016-10-14T08:03:52.579Z,160
2016-10-14T08:04:52.342Z,160
2016-10-14T08:05:52.368Z,165
2016-10-14T08:06:52.396Z,165
2016-10-14T08:07:52.406Z,165
2016-10-14T08:08:52.428Z,165
2016-10-14T08:09:52.441Z,170
2016-10-14T08:11:52.798Z,175
2016-10-14T08:12:52.577Z,180
2016-10-14T08:13:52.534Z,180
2016-10-14T08:14:52.554Z,180
2016-10-14T08:16:07.894Z,180
2016-10-14T08:17:07.523Z,180
2016-10-14T08:18:52.646Z,180
2016-10-14T08:20:07.579Z,185
2016-10-14T08:20:52.681Z,190
2016-10-14T08:21:52.702Z,190
2016-10-14T08:23:07.648Z,195
2016-10-14T08:23:52.734Z,205
2016-10-14T08:24:52.761Z,190
2016-10-14T08:25:52.792Z,195
2016-10-14T08:26:52.853Z,195
2016-10-14T08:27:53.823Z,195
2016-10-14T08:28:52.859Z,195
2016-10-14T08:29:52.872Z,195
2016-10-14T08:30:52.896Z,195
2016-10-14T08:32:07.839Z,205
2016-10-14T08:32:52.929Z,205
2016-10-14T08:33:52.965Z,210
2016-10-14T08:34:52.979Z,215
2016-10-14T08:35:52.995Z,210
2016-10-14T08:36:53.024Z,215
2016-10-14T08:38:07.960Z,220
2016-10-14T08:38:53.060Z,220
2016-10-14T08:39:53.096Z,215
2016-10-14T08:40:53.098Z,210
2016-10-14T08:42:08.049Z,215
2016-10-14T08:42:53.143Z,215
2016-10-14T08:43:53.477Z,215
2016-10-14T08:44:53.206Z,215
2016-10-14T08:45:53.217Z,215
2016-10-14T08:48:08.174Z,210
2016-10-14T08:48:53.287Z,215
2016-10-14T08:49:53.292Z,215
2016-10-14T08:50:53.332Z,215
2016-10-14T08:51:53.346Z,215
2016-10-14T08:52:53.416Z,220
2016-10-14T08:54:53.667Z,205
2016-10-14T08:56:08.356Z,210
2016-10-14T08:56:53.449Z,215
2016-10-14T08:58:08.405Z,220
2016-10-14T08:58:53.491Z,215
2016-10-14T09:00:08.442Z,205
2016-10-14T09:00:53.542Z,210
2016-10-14T09:01:53.564Z,210
2016-10-14T09:03:08.507Z,210
2016-10-14T09:03:53.618Z,205
2016-10-14T09:05:08.804Z,205
2016-10-14T09:05:53.647Z,215
2016-10-14T09:06:53.693Z,220
2016-10-14T09:07:53.698Z,220
2016-10-14T09:08:53.722Z,225
2016-10-14T09:09:53.740Z,220
2016-10-14T09:10:53.762Z,225
2016-10-14T09:11:53.789Z,225
2016-10-14T09:13:53.827Z,225
2016-10-14T09:14:53.850Z,220
2016-10-14T09:16:08.795Z,220
2016-10-14T09:17:08.819Z,220
2016-10-14T09:17:53.918Z,225
2016-10-14T09:18:53.936Z,230
2016-10-14T09:19:53.961Z,230
2016-10-14T09:20:53.990Z,230
2016-10-14T09:21:54.005Z,230
2016-10-14T09:22:54.038Z,235
2016-10-14T09:23:54.051Z,235
2016-10-14T09:24:54.079Z,235
2016-10-14T09:26:09.014Z,240
2016-10-14T09:26:54.119Z,240
2016-10-14T09:27:54.142Z,245
2016-10-14T09:28:54.167Z,240
2016-10-14T09:29:54.188Z,240
2016-10-14T09:30:54.212Z,240
2016-10-14T09:32:09.161Z,245
2016-10-14T09:32:54.252Z,245
2016-10-14T09:33:54.279Z,245
2016-10-14T09:35:09.225Z,245
2016-10-14T09:35:54.325Z,235
2016-10-14T09:36:54.347Z,230
2016-10-14T09:37:54.367Z,220
2016-10-14T09:39:54.408Z,220
2016-10-14T09:40:54.435Z,225
2016-10-14T09:42:09.645Z,225
2016-10-14T09:42:54.831Z,235
2016-10-14T09:43:54.516Z,225
2016-10-14T09:44:54.523Z,230
2016-10-14T09:46:09.675Z,230
2016-10-14T09:47:09.496Z,230
2016-10-14T09:47:54.601Z,225
2016-10-14T09:48:54.874Z,230
2016-10-14T09:49:54.635Z,230
2016-10-14T09:51:09.798Z,240
2016-10-14T09:51:54.684Z,240
2016-10-14T09:52:54.708Z,245
2016-10-14T09:53:54.738Z,245
2016-10-14T09:54:54.761Z,240
2016-10-14T09:55:54.791Z,230
2016-10-14T09:56:54.805Z,220
2016-10-14T09:57:55.071Z,225
2016-10-14T09:58:54.857Z,220
2016-10-14T09:59:54.879Z,220
2016-10-14T10:00:54.902Z,220
2016-10-14T10:01:54.929Z,210
2016-10-14T10:03:24.822Z,200
2016-10-14T10:03:55.266Z,205
2016-10-14T10:04:54.990Z,210
2016-10-14T10:05:55.006Z,215
2016-10-14T10:07:09.955Z,215
2016-10-14T10:07:55.055Z,215
2016-10-14T10:08:55.280Z,210
2016-10-14T10:09:55.100Z,210
2016-10-14T10:10:55.132Z,210
2016-10-14T10:11:55.150Z,210
2016-10-14T10:12:55.179Z,210
2016-10-14T10:13:55.191Z,210
2016-10-14T10:14:55.475Z,195
2016-10-14T10:15:55.240Z,185
2016-10-14T10:17:10.192Z,185
2016-10-14T10:17:55.295Z,185
2016-10-14T10:18:55.310Z,185
2016-10-14T10:20:10.259Z,180
2016-10-14T10:20:55.364Z,180
2016-10-14T10:21:55.381Z,180
2016-10-14T10:23:10.328Z,180
2016-10-14T10:23:55.426Z,180
2016-10-14T10:24:55.462Z,185
2016-10-14T10:25:55.472Z,180
2016-10-14T10:27:10.413Z,180
2016-10-14T10:27:55.519Z,175
2016-10-14T10:28:55.534Z,175
2016-10-14T10:29:56.566Z,165
2016-10-14T10:31:10.512Z,155
2016-10-14T10:31:55.618Z,155
2016-10-14T10:32:55.992Z,155
2016-10-14T10:33:55.655Z,155
2016-10-14T10:34:55.672Z,150
2016-10-14T10:35:55.701Z,150
2016-10-14T10:36:55.724Z,150
2016-10-14T10:39:10.689Z,150
2016-10-14T10:39:55.787Z,150
2016-10-14T10:40:55.811Z,150
2016-10-14T10:41:55.831Z,150
2016-10-14T10:42:55.859Z,150
2016-10-14T10:43:55.879Z,150
2016-10-14T10:44:55.906Z,150
2016-10-14T10:45:55.920Z,145
2016-10-14T10:46:55.936Z,145
2016-10-14T10:47:55.977Z,145
2016-10-14T10:49:10.914Z,145
2016-10-14T10:50:10.937Z,145
2016-10-14T10:50:56.030Z,145
2016-10-14T10:51:56.054Z,145
2016-10-14T10:52:56.101Z,145
2016-10-14T10:55:11.052Z,145
2016-10-14T10:55:56.158Z,145
2016-10-14T10:57:56.198Z,145
2016-10-14T10:58:56.207Z,145
2016-10-14T11:00:11.168Z,145
2016-10-14T11:00:56.267Z,145
2016-10-14T11:02:11.211Z,140
2016-10-14T11:02:56.312Z,140
2016-10-14T11:03:56.329Z,140
2016-10-14T11:04:56.351Z,140
2016-10-14T11:06:11.297Z,140
2016-10-14T11:07:11.315Z,140
2016-10-14T11:07:56.409Z,140
2016-10-14T11:08:56.445Z,140
2016-10-14T11:10:11.380Z,135
2016-10-14T11:10:56.480Z,135
2016-10-14T11:12:56.529Z,135
2016-10-14T11:13:56.554Z,135
2016-10-14T11:14:56.568Z,130
2016-10-14T11:15:56.598Z,135
2016-10-14T11:17:11.542Z,130
2016-10-14T11:18:56.673Z,135
2016-10-14T11:20:56.709Z,130
2016-10-14T11:22:11.658Z,130
2016-10-14T11:23:11.981Z,130
2016-10-14T11:23:56.793Z,135
2016-10-14T11:25:11.721Z,135
2016-10-14T11:26:11.789Z,135
2016-10-14T11:26:56.861Z,120
2016-10-14T11:27:56.868Z,135
2016-10-14T11:28:56.899Z,135
2016-10-14T11:29:56.916Z,135
2016-10-14T11:30:56.938Z,135
2016-10-14T11:31:56.965Z,135
2016-10-14T11:33:11.900Z,135
2016-10-14T11:33:57.260Z,140
2016-10-14T11:34:57.334Z,140
2016-10-14T11:35:57.053Z,135
2016-10-14T11:36:57.076Z,140
2016-10-14T11:37:57.098Z,135
2016-10-14T11:38:57.117Z,135
2016-10-14T11:39:57.198Z,135
2016-10-14T11:40:57.171Z,135
2016-10-14T11:42:12.112Z,130
2016-10-14T11:42:57.208Z,130
2016-10-14T11:43:57.224Z,125
2016-10-14T11:44:57.249Z,125
2016-10-14T11:45:57.277Z,125
2016-10-14T11:46:57.297Z,125
2016-10-14T11:47:57.326Z,125
2016-10-14T11:48:57.349Z,125
2016-10-14T11:49:57.365Z,125
2016-10-14T11:50:57.385Z,130
2016-10-14T11:51:57.419Z,130
2016-10-14T11:52:57.437Z,130
2016-10-14T11:54:12.371Z,125
2016-10-14T11:54:57.483Z,125
2016-10-14T11:55:57.746Z,100
2016-10-14T11:56:57.532Z,125
2016-10-14T11:58:12.472Z,125
2016-10-14T11:58:57.575Z,125
2016-10-14T11:59:57.597Z,125
2016-10-14T12:00:57.616Z,125
2016-10-14T12:01:57.650Z,125
2016-10-14T12:02:57.654Z,125
2016-10-14T12:03:57.681Z,115
2016-10-14T12:04:57.961Z,125
2016-10-14T12:05:57.734Z,125
2016-10-14T12:06:57.745Z,125
2016-10-14T12:07:57.782Z,100
2016-10-14T12:09:12.723Z,125
2016-10-14T12:09:57.815Z,125
2016-10-14T12:10:58.098Z,125
2016-10-14T12:11:57.867Z,130
2016-10-14T12:13:12.808Z,120
2016-10-14T12:14:12.835Z,125
2016-10-14T12:14:57.934Z,130
2016-10-14T12:15:57.962Z,130
2016-10-14T12:16:57.990Z,130
2016-10-14T12:17:58.058Z,130
2016-10-14T12:18:58.018Z,130
2016-10-14T12:19:58.055Z,130
2016-10-14T12:21:12.996Z,130
2016-10-14T12:21:58.097Z,130
2016-10-14T12:22:58.115Z,130
2016-10-14T12:23:58.146Z,125
2016-10-14T12:24:58.157Z,125
2016-10-14T12:25:58.968Z,110
2016-10-14T12:27:13.133Z,130
2016-10-14T12:28:13.154Z,130
2016-10-14T12:29:13.176Z,125
2016-10-14T12:29:58.278Z,130
2016-10-14T12:30:58.300Z,130
2016-10-14T12:32:13.243Z,125
2016-10-14T12:33:13.264Z,130
2016-10-14T12:33:58.361Z,125
2016-10-14T12:34:58.395Z,115
2016-10-14T12:36:13.341Z,130
2016-10-14T12:36:58.428Z,135
2016-10-14T12:37:58.463Z,135
2016-10-14T12:38:58.478Z,140
2016-10-14T12:40:13.427Z,135
2016-10-14T12:40:58.770Z,135
2016-10-14T12:41:58.559Z,130
2016-10-14T12:43:13.504Z,110
2016-10-14T12:43:58.593Z,115
2016-10-14T12:45:13.595Z,110
2016-10-14T12:45:58.647Z,115
2016-10-14T12:46:58.672Z,115
2016-10-14T12:47:58.684Z,115
2016-10-14T12:48:58.713Z,140
2016-10-14T12:50:58.758Z,120
2016-10-14T12:51:58.780Z,120
2016-10-14T12:52:58.810Z,135
2016-10-14T12:53:58.828Z,120
2016-10-14T12:55:13.791Z,115
2016-10-14T12:56:14.101Z,125
2016-10-14T12:56:58.901Z,125
2016-10-14T12:58:13.846Z,110
2016-10-14T12:59:13.863Z,115
2016-10-14T13:00:13.903Z,130
2016-10-14T13:01:13.916Z,130
2016-10-14T13:01:59.310Z,130
2016-10-14T13:02:59.034Z,120
2016-10-14T13:03:59.061Z,130
2016-10-14T13:05:14.004Z,110
2016-10-14T13:05:59.096Z,110
2016-10-14T13:06:59.133Z,125
2016-10-14T13:08:14.065Z,110
2016-10-14T13:08:59.425Z,110
2016-10-14T13:09:59.185Z,110
2016-10-14T13:10:59.218Z,105
2016-10-14T13:11:59.242Z,115
2016-10-14T13:12:59.264Z,100
2016-10-14T13:13:59.282Z,90
2016-10-14T13:14:59.308Z,95
2016-10-14T13:16:14.259Z,90
2016-10-14T13:17:14.326Z,90
2016-10-14T13:18:14.305Z,90
2016-10-14T13:18:59.403Z,95
2016-10-14T13:19:59.421Z,90
2016-10-14T13:20:59.452Z,90
2016-10-14T13:21:59.470Z,100
2016-10-14T13:22:59.492Z,95
2016-10-14T13:24:14.443Z,95
2016-10-14T13:24:59.540Z,90
2016-10-14T13:26:14.480Z,90
2016-10-14T13:26:59.589Z,90
2016-10-14T13:27:59.857Z,90
2016-10-14T13:28:59.648Z,100
2016-10-14T13:29:59.657Z,100
2016-10-14T13:30:59.676Z,100
2016-10-14T13:32:14.869Z,105
2016-10-14T13:33:29.568Z,100
2016-10-14T13:33:59.744Z,105
2016-10-14T13:35:00.074Z,110
2016-10-14T13:35:59.790Z,110
2016-10-14T13:36:59.823Z,110
2016-10-14T13:37:59.842Z,110
2016-10-14T13:38:59.866Z,100
2016-10-14T13:40:00.138Z,105
2016-10-14T13:40:59.911Z,110
2016-10-14T13:41:59.941Z,105
2016-10-14T13:43:00.256Z,105
2016-10-14T13:43:59.992Z,105
2016-10-14T13:45:29.850Z,100
2016-10-14T13:46:00.027Z,105
2016-10-14T13:47:00.052Z,100
2016-10-14T13:48:15.245Z,100
2016-10-14T13:49:15.021Z,100
2016-10-14T13:50:00.128Z,95
2016-10-14T13:51:00.138Z,95
2016-10-14T13:52:00.170Z,95
2016-10-14T13:53:30.285Z,90
2016-10-14T13:54:00.210Z,90
2016-10-14T13:55:00.235Z,90
2016-10-14T13:56:00.265Z,90
2016-10-14T13:57:00.291Z,95
2016-10-14T13:58:00.315Z,85
2016-10-14T13:59:00.636Z,90
2016-10-14T14:00:00.371Z,90
2016-10-14T14:01:15.295Z,95
2016-10-14T14:02:00.397Z,95
2016-10-14T14:03:00.413Z,90
2016-10-14T14:04:00.452Z,95
2016-10-14T14:05:00.467Z,90
2016-10-14T14:06:00.493Z,90
2016-10-14T14:07:00.512Z,90
2016-10-14T14:08:00.537Z,90
2016-10-14T14:09:00.553Z,95
2016-10-14T14:10:00.842Z,90
2016-10-14T14:11:15.827Z,95
2016-10-14T14:13:15.577Z,90
2016-10-14T14:14:00.668Z,85
2016-10-14T14:15:00.693Z,90
2016-10-14T14:16:15.634Z,90
2016-10-14T14:17:00.747Z,85
2016-10-14T14:18:00.779Z,85
2016-10-14T14:19:00.795Z,75
2016-10-14T14:20:15.732Z,75
2016-10-14T14:21:00.855Z,75
2016-10-14T14:22:00.865Z,75
2016-10-14T14:23:00.877Z,70
2016-10-14T14:24:00.907Z,65
2016-10-14T14:25:01.179Z,65
2016-10-14T14:26:00.946Z,65
2016-10-14T14:27:00.982Z,70
2016-10-14T14:28:01.014Z,70
2016-10-14T14:30:01.046Z,70
2016-10-14T14:31:15.993Z,75
2016-10-14T14:32:01.093Z,75
2016-10-14T14:33:01.111Z,65
2016-10-14T14:34:01.143Z,70
2016-10-14T14:35:01.157Z,70
2016-10-14T14:36:16.109Z,65
2016-10-14T14:37:01.214Z,65
2016-10-14T14:38:01.232Z,65
2016-10-14T14:39:01.247Z,65
2016-10-14T14:40:01.277Z,70
2016-10-14T14:41:01.302Z,70
2016-10-14T14:42:01.319Z,70
2016-10-14T14:43:16.260Z,70
2016-10-14T14:44:01.363Z,65
2016-10-14T14:46:01.409Z,60
2016-10-14T14:47:01.441Z,65
2016-10-14T14:48:16.634Z,65
2016-10-14T14:49:01.489Z,65
2016-10-14T14:50:01.505Z,65
2016-10-14T14:51:16.445Z,60
2016-10-14T14:52:16.474Z,60
2016-10-14T14:53:16.498Z,60
2016-10-14T14:54:01.601Z,60
2016-10-14T14:55:01.617Z,60
2016-10-14T14:56:01.646Z,55
2016-10-14T14:57:16.587Z,55
2016-10-14T14:58:01.683Z,50
2016-10-14T14:59:01.721Z,50
2016-10-14T15:00:01.743Z,50